Accueil
METAR-TAF:

METAR-TAF

Aéroports :

Aéroport de Lugano

Lugano, Suisse

latitude: 46-00N, longitude: 008-58E, altitude: 273 m

Observation

Le bulletin a été fait il y a 16 minutes, à 09:20 UTC
Vent 1 kt de direction variable
Température 17°C
Humidité 72%
Pression 1020 hPa
Visibilité: 8000 m
Quelques nuages à une hauteur de 5000 ft
Nuages fragmentés à une hauteur de 10000 ft

METAR: LSZA 150920Z VRB01KT 8000 FEW050 BKN100 17/12 Q1020 NOSIG

Heure: 11:36 (09:36 UTC)

Prévision

Le bulletin a été fait il y a 1 heure et 11 minutes, à 08:25 UTC
Prévision valable du 15 à 09 UTC au 15 à 18 UTC
Vent 3 kt de direction variable
Visibilité: 8000 m
Quelques nuages à une hauteur de 8000 ft
Nuages fragmentés à une hauteur de 10000 ft

TAF: LSZA 150825Z 1509/1518 VRB03KT 8000 FEW080 BKN100

Observations et prévisions météorologiques de plus de 4000 aéroports (messages METAR et TAF).

Les stations disponibles sont représentées par des disques jaunes et rouges sur la carte.

Passer la souris dessus pour voir le nom de la station.

Cliquer dessus pour voir les observations et prévisions météorologiques.

Pour changer de carte: cliquez sur les boutons verts avec une croix noire pour zoomer, sur le bouton vert avec un tiret pour effectuer un zoom arrière, ou sur les flèches vertes pour les cartes adjacentes.


METAR-TAF: